• Join FlightAware (Why Join?)
  • Login
  • US Flag 
01:27PM EST


 

Airport Tracker/Info


-or-


 

Live Flight TrackerFlight Track Log ✈ N329PA ✈ 03-Aug-2013 ✈ KHND - KDVT

Flight Track Log - Related Links

Times and Time Zones

All times are in EDT time to prevent confusion due to time zone crossing. See the N329PA flight status page for this flight to view local times or setup timezone preferences in your user account.

Time Position Orientation Groundspeed Altitude Reporting Facility
EDT Latitude Longitude Course Direction KTS MPH feet Rate Location/Type
01:31AM 35.9053 -115.1075 157° South 72 83 3,700  Level Los Angeles Center
01:32AM 35.8931 -115.1011 157° South 70 81 4,000 2,820 Climbing Los Angeles Center
01:32AM 35.8853 -115.0956 150° Southeast 69 79 7,500 2,280 Climbing Los Angeles Center
01:33AM 35.8675 -115.0831 150° Southeast 66 76 7,500 -1,920 Level Los Angeles Center
01:34AM 35.8578 -115.0781 157° South 71 82 4,700  Descending Los Angeles Center
01:34AM 35.8500 -115.0728 151° Southeast 69 79 7,500 240 Climbing Los Angeles Center
01:35AM 35.8325 -115.0619 153° Southeast 76 87 5,100 -1,140 Descending Los Angeles Center
01:36AM 35.8169 -115.0525 154° Southeast 66 76 5,300 240 Climbing Los Angeles Center
01:37AM 35.7997 -115.0464 164° South 65 75 5,600 300 Climbing Los Angeles Center
01:38AM 35.7875 -115.0431 168° South 67 77 5,800 300 Climbing Los Angeles Center
01:39AM 35.7725 -115.0347 156° South 73 84 6,100 240 Climbing Los Angeles Center
01:39AM 35.7639 -115.0325 168° South 66 76 6,200 240 Climbing Los Angeles Center
01:40AM 35.7469 -115.0236 157° South 66 76 6,500 240 Climbing Los Angeles Center
01:41AM 35.7269 -115.0103 152° Southeast 67 77 6,800 240 Climbing Los Angeles Center
01:42AM 35.7103 -115.0019 158° South 66 76 7,000 120 Climbing Los Angeles Center
01:43AM 35.6947 -114.9919 152° Southeast 65 75 7,100 180 Climbing Los Angeles Center
01:44AM 35.6792 -114.9817 152° Southeast 64 74 7,400 120 Climbing Los Angeles Center
01:45AM 35.6614 -114.9742 161° South 64 74 7,400  Level Los Angeles Center
01:46AM 35.6408 -114.9650 160° South 70 81 7,500  Climbing Los Angeles Center
01:47AM 35.6189 -114.9578 165° South 76 87 7,500  Level Los Angeles Center
01:48AM 35.5964 -114.9494 163° South 80 92 7,500  Level Los Angeles Center
01:49AM 35.5731 -114.9397 161° South 84 97 7,500  Level Los Angeles Center
01:50AM 35.5525 -114.9303 160° South 83 96 7,500  Level Los Angeles Center
01:51AM 35.5333 -114.9136 145° Southeast 82 94 7,500 -60 Level Los Angeles Center
01:52AM 35.5114 -114.9003 154° Southeast 84 97 7,400  Descending Los Angeles Center
01:53AM 35.4883 -114.8892 159° South 87 100 7,500  Climbing Los Angeles Center
01:55AM 35.4669 -114.8739 150° Southeast 87 100 7,500 60 Level Los Angeles Center
01:56AM 35.4464 -114.8561 145° Southeast 89 102 7,700 120 Climbing Los Angeles Center
01:57AM 35.4217 -114.8389 150° Southeast 88 101 7,800  Climbing Los Angeles Center
01:58AM 35.3994 -114.8258 154° Southeast 87 100 7,700 -60 Descending Los Angeles Center
01:59AM 35.3758 -114.8183 165° South 87 100 7,700  Level Los Angeles Center
02:00AM 35.3483 -114.8092 165° South 86 99 7,700  Level Los Angeles Center
02:01AM 35.3258 -114.7997 161° South 86 99 7,700  Level Los Angeles Center
02:02AM 35.3042 -114.7858 152° Southeast 87 100 7,700  Level Los Angeles Center
02:03AM 35.2817 -114.7714 152° Southeast 88 101 7,700  Level Los Angeles Center
02:04AM 35.2608 -114.7578 152° Southeast 88 101 7,700  Level Los Angeles Center
02:05AM 35.2422 -114.7469 155° Southeast 82 94 7,700  Level Los Angeles Center
02:06AM 35.2214 -114.7350 155° Southeast 81 93 7,700  Level Los Angeles Center
02:07AM 35.2006 -114.7228 154° Southeast 82 94 7,700  Level Los Angeles Center
02:08AM 35.1778 -114.7125 160° South 83 96 7,700  Level Los Angeles Center
02:09AM 35.1531 -114.7036 164° South 87 100 7,800  Climbing Los Angeles Center
02:10AM 35.1319 -114.6886 150° Southeast 89 102 7,800  Level Los Angeles Center
02:11AM 35.1111 -114.6714 146° Southeast 89 102 7,800  Level Los Angeles Center
02:12AM 35.0892 -114.6578 153° Southeast 88 101 7,800 -60 Level Los Angeles Center
02:13AM 35.0667 -114.6428 151° Southeast 91 105 7,700  Descending Los Angeles Center
02:14AM 35.0436 -114.6283 153° Southeast 91 105 7,800  Climbing Los Angeles Center
02:15AM 35.0225 -114.6119 148° Southeast 91 105 7,800  Level Los Angeles Center
02:16AM 35.0039 -114.6006 153° Southeast 92 106 7,800  Level Los Angeles Center
02:17AM 34.9722 -114.5906 165° South 95 109 7,800  Level Los Angeles Center
02:18AM 34.9425 -114.5803 164° South 95 109 7,800  Level Los Angeles Center
02:19AM 34.9178 -114.5686 159° South 94 108 7,800 -60 Level Los Angeles Center
02:20AM 34.8936 -114.5583 161° South 93 107 7,700  Descending Los Angeles Center
02:21AM 34.8719 -114.5414 147° Southeast 93 107 7,800  Climbing Los Angeles Center
02:22AM 34.8492 -114.5253 150° Southeast 93 107 7,700  Descending Los Angeles Center
02:23AM 34.8244 -114.5125 157° South 94 108 7,800  Climbing Los Angeles Center
02:24AM 34.8039 -114.4883 136° Southeast 98 113 7,700  Descending Los Angeles Center
02:25AM 34.7819 -114.4719 148° Southeast 97 112 7,800  Climbing Los Angeles Center
02:26AM 34.7667 -114.4406 121° Southeast 98 113 7,700 -60 Descending Los Angeles Center
02:27AM 34.7497 -114.4142 128° Southeast 100 115 7,700  Level Los Angeles Center
02:28AM 34.7322 -114.3908 132° Southeast 96 110 7,800  Climbing Los Angeles Center
02:29AM 34.7192 -114.3633 120° Southeast 95 109 7,700 -60 Descending Los Angeles Center
02:30AM 34.7039 -114.3358 124° Southeast 96 110 7,700  Level Los Angeles Center
02:31AM 34.6944 -114.3056 111° Southeast 95 109 7,800  Climbing Los Angeles Center
02:32AM 34.6786 -114.2797 127° Southeast 95 109 7,800  Level Los Angeles Center
02:33AM 34.6644 -114.2494 120° Southeast 101 116 7,800 -60 Level Los Angeles Center
02:34AM 34.6503 -114.2208 121° Southeast 101 116 7,700 -60 Descending Los Angeles Center
02:35AM 34.6328 -114.1942 129° Southeast 101 116 7,700  Level Los Angeles Center
02:36AM 34.6219 -114.1633 113° Southeast 101 116 7,700  Level Los Angeles Center
02:37AM 34.6058 -114.1289 120° Southeast 99 114 7,700 120 Level Los Angeles Center
02:38AM 34.5961 -114.1097 122° Southeast 98 113 7,900 60 Climbing Albuquerque Center
02:39AM 34.5817 -114.0786 119° Southeast 103 119 7,800 -60 Descending Albuquerque Center
02:40AM 34.5672 -114.0486 120° Southeast 103 119 7,800  Level Albuquerque Center
02:41AM 34.5539 -114.0211 120° Southeast 98 113 7,800  Level Albuquerque Center
02:42AM 34.5422 -113.9919 116° Southeast 96 110 7,800  Level Albuquerque Center
02:43AM 34.5289 -113.9622 119° Southeast 99 114 7,800  Level Albuquerque Center
02:44AM 34.5214 -113.9319 107° East 95 109 7,900  Climbing Albuquerque Center
02:45AM 34.5103 -113.9014 114° Southeast 98 113 7,900 -60 Level Albuquerque Center
02:46AM 34.4947 -113.8736 124° Southeast 99 114 7,800 -60 Descending Albuquerque Center
02:47AM 34.4842 -113.8417 112° Southeast 101 116 7,800  Level Albuquerque Center
02:48AM 34.4736 -113.8119 113° Southeast 98 113 7,900  Climbing Albuquerque Center
02:49AM 34.4656 -113.7853 110° East 97 112 7,900  Level Albuquerque Center
02:50AM 34.4539 -113.7539 114° Southeast 95 109 7,900 -60 Level Albuquerque Center
02:52AM 34.4313 -113.7048 119° Southeast  Level FlightAware Approximate
02:59AM 34.3313 -113.4879 119° Southeast  Level FlightAware Approximate
03:00AM 34.3169 -113.4570 119° Southeast  Level FlightAware Approximate
03:01AM 34.3026 -113.4260 119° Southeast  Level FlightAware Approximate
03:01AM 34.2950 -113.4386 119° Southeast 128 147 7,800  Level Albuquerque Center
03:02AM 34.2883 -113.3951 119° Southeast  Level FlightAware Approximate
03:02AM 34.2756 -113.4136 133° Southeast 100 115 7,800  Level Albuquerque Center
03:03AM 34.2739 -113.3642 119° Southeast  Level FlightAware Approximate
03:03AM 34.2642 -113.3781 111° Southeast 105 121 7,800  Level Albuquerque Center
03:04AM 34.2596 -113.3333 119° Southeast  Level FlightAware Approximate
03:04AM 34.2525 -113.3458 114° Southeast 106 122 7,900  Level Albuquerque Center
03:05AM 34.2452 -113.3025 119° Southeast  Level FlightAware Approximate
03:05AM 34.2364 -113.3078 117° Southeast 110 127 7,900  Level Albuquerque Center
03:06AM 34.2308 -113.2716 119° Southeast  Level FlightAware Approximate
03:06AM 34.2200 -113.2742 121° Southeast 116 133 7,800  Level Albuquerque Center
03:07AM 34.2036 -113.2453 124° Southeast 108 124 7,800  Level Albuquerque Center
03:08AM 34.1886 -113.2139 120° Southeast 108 124 7,800  Level Albuquerque Center
03:09AM 34.1722 -113.1825 122° Southeast 110 127 7,800 -120 Level Albuquerque Center
03:10AM 34.1547 -113.1489 122° Southeast 116 133 7,600 -180 Descending Albuquerque Center
03:11AM 34.1406 -113.1158 117° Southeast 114 131 7,500 -180 Descending Albuquerque Center
03:16AM 34.0540 -112.9240 117° Southeast 108 124 -180 Descending FlightAware
03:16AM 34.0520 -112.9180 112° Southeast 107 123 60 Level FlightAware
03:17AM 34.0460 -112.9050 119° Southeast 107 123 60 Level FlightAware
03:17AM 34.0410 -112.8960 124° Southeast 111 128 60 Level FlightAware
03:17AM 34.0380 -112.8920 132° Southeast 109 125 60 Level FlightAware
03:18AM 34.0350 -112.8840 114° Southeast 108 124 120 Level FlightAware
03:18AM 34.0330 -112.8800 121° Southeast 110 127 120 Level FlightAware
03:18AM 34.0270 -112.8690 123° Southeast 107 123 120 Level FlightAware
03:18AM 34.0230 -112.8590 116° Southeast 109 125 120 Level FlightAware
03:19AM 34.0190 -112.8520 125° Southeast 108 124 120 Level FlightAware
03:19AM 34.0140 -112.8390 115° Southeast 108 124 120 Level FlightAware
03:19AM 34.0120 -112.8330 112° Southeast 108 124 120 Level FlightAware
03:19AM 34.0080 -112.8240 118° Southeast 109 125 120 Level FlightAware
03:20AM 33.9980 -112.8100 131° Southeast 108 124 120 Level FlightAware
03:20AM 33.9910 -112.7960 121° Southeast 110 127 120 Level FlightAware
03:21AM 33.9860 -112.7860 121° Southeast 110 127 120 Level FlightAware
03:21AM 33.9800 -112.7760 126° Southeast 110 127 120 Level FlightAware
03:21AM 33.9770 -112.7690 117° Southeast 109 125 120 Level FlightAware
03:22AM 33.9710 -112.7580 123° Southeast 110 127 120 Level FlightAware
03:22AM 33.9660 -112.7480 121° Southeast 110 127 120 Level FlightAware
03:22AM 33.9610 -112.7400 127° Southeast 114 131 120 Level FlightAware
03:23AM 33.9530 -112.7230 120° Southeast 113 130 120 Level FlightAware
03:23AM 33.9400 -112.6990 123° Southeast 118 136 120 Level FlightAware
03:24AM 33.9350 -112.6900 124° Southeast 118 136 120 Level FlightAware
03:24AM 33.9280 -112.6800 130° Southeast 114 131 120 Level FlightAware
03:24AM 33.9250 -112.6750 126° Southeast 112 129 120 Level FlightAware
03:25AM 33.9170 -112.6630 129° Southeast 113 130 120 Level FlightAware
03:25AM 33.9110 -112.6530 126° Southeast 109 125 120 Level FlightAware
03:25AM 33.9070 -112.6470 129° Southeast 109 125 180 Level FlightAware
03:26AM 33.8990 -112.6370 134° Southeast 109 125 180 Level FlightAware
03:26AM 33.8920 -112.6290 137° Southeast 114 131 180 Level FlightAware
03:26AM 33.8870 -112.6230 135° Southeast 111 128 180 Level FlightAware
03:26AM 33.8770 -112.6130 140° Southeast 113 130 180 Level FlightAware
03:27AM 33.8700 -112.6050 137° Southeast 111 128 180 Level FlightAware
03:27AM 33.8620 -112.5960 137° Southeast 113 130 180 Level FlightAware
03:27AM 33.8550 -112.5860 130° Southeast 111 128 180 Level FlightAware
03:28AM 33.8510 -112.5770 118° Southeast 115 132 180 Level FlightAware
03:28AM 33.8470 -112.5650 112° Southeast 116 133 180 Level FlightAware
03:28AM 33.8410 -112.5530 121° Southeast 120 138 180 Level FlightAware
03:29AM 33.8360 -112.5420 119° Southeast 120 138 180 Level FlightAware
03:29AM 33.8320 -112.5330 118° Southeast 120 138 240 Level FlightAware
03:29AM 33.8280 -112.5200 110° East 121 139 240 Level FlightAware
03:30AM 33.8240 -112.5070 110° East 121 139 240 Level FlightAware
03:30AM 33.8200 -112.4950 112° Southeast 109 125 240 Level FlightAware
03:30AM 33.8150 -112.4810 113° Southeast 109 125 240 Level FlightAware
03:31AM 33.8110 -112.4700 114° Southeast 111 128 240 Level FlightAware
03:31AM 33.8090 -112.4630 109° East 112 129 300 Level FlightAware
03:31AM 33.8040 -112.4490 113° Southeast 110 127 300 Level FlightAware
03:32AM 33.8020 -112.4420 109° East 110 127 300 Level FlightAware
03:32AM 33.7980 -112.4320 116° Southeast 111 128 300 Level FlightAware
03:32AM 33.7930 -112.4170 112° Southeast 103 119 300 Level FlightAware
03:33AM 33.7890 -112.4070 116° Southeast 111 128 360 Level FlightAware
03:33AM 33.7860 -112.3950 107° East 111 128 360 Level FlightAware
03:33AM 33.7840 -112.3860 105° East 111 128 360 Level FlightAware
03:34AM 33.7800 -112.3740 112° Southeast 114 131 360 Level FlightAware
03:34AM 33.7770 -112.3640 110° East 111 128 420 Level FlightAware
03:34AM 33.7740 -112.3560 114° Southeast 117 135 420 Level FlightAware
03:35AM 33.7700 -112.3400 107° East 115 132 420 Level FlightAware
03:35AM 33.7660 -112.3280 112° Southeast 117 135 480 Level FlightAware
03:35AM 33.7610 -112.3160 117° Southeast 115 132 540 Level FlightAware
03:35AM 33.7580 -112.3070 112° Southeast 110 127 540 Level FlightAware
03:36AM 33.7540 -112.2960 114° Southeast 105 121 600 Level FlightAware
03:36AM 33.7500 -112.2910 134° Southeast 104 120 660 Level FlightAware
03:36AM 33.7430 -112.2800 127° Southeast 102 117 660 Level FlightAware
03:37AM 33.7370 -112.2700 126° Southeast 105 121 780 Level FlightAware
03:37AM 33.7330 -112.2630 124° Southeast 105 121 840 Level FlightAware
03:37AM 33.7280 -112.2530 121° Southeast 105 121 960 Level FlightAware
03:38AM 33.7230 -112.2440 124° Southeast 104 120 1,080 Level FlightAware
03:38AM 33.7170 -112.2330 123° Southeast 106 122 1,260 Level FlightAware
03:38AM 33.7150 -112.2310 140° Southeast 103 119 1,500 Level FlightAware
03:38AM 33.7060 -112.2230 144° Southeast 103 119 1,620 Level FlightAware
03:39AM 33.6990 -112.2170 145° Southeast 104 120 2,100 Level FlightAware
03:39AM 33.6900 -112.2100 147° Southeast 103 119 2,760 Level FlightAware
03:39AM 33.6810 -112.2040 151° Southeast 100 115 4,260 Level FlightAware
03:40AM 33.6760 -112.1980 135° Southeast 104 120 2,700 7,020 Climbing FlightAware
03:40AM 33.6740 -112.1940 121° Southeast 105 121 2,700 -300 Level FlightAware
03:40AM 33.6720 -112.1870 109° East 103 119 2,600 -420 Descending FlightAware
03:40AM 33.6710 -112.1760 96° East 107 123 2,500 -240 Descending FlightAware
03:41AM 33.6710 -112.1690 90° East 108 124 2,500  Level FlightAware
03:41AM 33.6700 -112.1460 93° East 106 122 2,500  Level FlightAware
03:42AM 33.6710 -112.1340 84° East 106 122 2,500  Level FlightAware
03:42AM 33.6710 -112.1200 90° East 109 125 2,500  Level FlightAware
03:42AM 33.6710 -112.1090 90° East 108 124 2,500  Level FlightAware
03:43AM 33.6700 -112.0970 96° East 107 123 2,500  Level FlightAware
03:43AM 33.6700 -112.0880 90° East 110 127 2,500  Level FlightAware
03:43AM 33.6690 -112.0740 95° East 111 128 2,500  Level FlightAware
03:44AM 33.6690 -112.0610 90° East 111 128 2,500  Level FlightAware
03:44AM 33.6690 -112.0480 90° East 114 131 2,500  Level FlightAware
03:44AM 33.6700 -112.0430 76° East 113 130 2,500 -300 Level FlightAware
03:44AM 33.6720 -112.0360 71° East 102 117 2,400 -360 Descending FlightAware
03:44AM 33.6740 -112.0340 40° Northeast 96 110 2,400  Level FlightAware
03:44AM 33.6750 -112.0330 40° Northeast 91 105 2,400 -420 Level FlightAware
03:45AM 33.6840 -112.0340 355° North 67 77 2,200 -540 Descending FlightAware
03:45AM 33.6860 -112.0360 320° Northwest 67 77 2,100 -480 Descending FlightAware
03:45AM 33.6870 -112.0380 301° West 65 75 2,100  Level FlightAware
03:46AM 33.6900 -112.0450 297° West 65 75 2,100  Level FlightAware